Skip Navigation

Christman Field Latest Observations

Switch to metric unitsOther observation timesWeekly graphs

Date Time
MST
Temp
°F
RH
%
DewPt
°F
Wind
mph
Dir
°
Gust
mph
Dir
°
Press
in Hg
Solar
W/m^2
Prec
in
2022-12-08 03:15 23.0 81.4 18.2 0.3 191 1.3 127 24.807 0.2 0.00
2022-12-08 03:10 23.2 80.4 18.1 1.3 131 2.1 131 24.807 0.2 0.00
2022-12-08 03:05 23.8 78.8 18.2 1.4 40 2.8 56 24.807 0.2 0.00
2022-12-08 03:00 23.9 79.2 18.4 2.5 69 2.9 72 24.807 0.2 0.00
2022-12-08 02:55 22.6 82.8 18.2 0.7 90 1.8 80 24.809 0.2 0.00
2022-12-08 02:50 22.3 80.2 17.1 1.3 19 2.0 343 24.808 0.2 0.00
2022-12-08 02:45 22.8 78.7 17.2 1.0 260 1.3 274 24.811 0.2 0.00
2022-12-08 02:40 23.4 77.9 17.5 0.2 280 0.9 234 24.815 0.2 0.00
2022-12-08 02:35 23.2 78.2 17.5 2.0 225 3.9 215 24.818 0.2 0.00
2022-12-08 02:30 23.0 80.5 17.9 0.5 218 2.1 213 24.817 0.2 0.00
2022-12-08 02:25 24.2 77.0 18.1 2.6 84 3.6 72 24.818 0.2 0.00
2022-12-08 02:20 23.6 80.1 18.4 3.6 72 4.1 80 24.818 0.2 0.00
2022-12-08 02:15 22.6 83.6 18.4 0.5 69 2.5 69 24.813 0.2 0.00
2022-12-08 02:10 22.5 81.8 17.8 2.6 338 4.2 9 24.809 0.2 0.00
2022-12-08 02:05 23.1 80.5 18.0 3.9 353 5.8 339 24.806 0.2 0.00
2022-12-08 02:00 24.9 76.1 18.5 3.6 346 5.3 351 24.806 0.2 0.00
2022-12-08 01:55 24.6 79.0 19.0 0.4 319 1.8 319 24.809 0.2 0.00
2022-12-08 01:50 24.5 77.6 18.5 1.1 229 2.2 223 24.809 0.2 0.00
2022-12-08 01:45 24.7 77.8 18.7 1.5 185 2.9 218 24.812 0.2 0.00
2022-12-08 01:40 25.2 76.0 18.7 3.3 218 3.7 224 24.814 0.2 0.00
2022-12-08 01:35 24.6 78.4 18.9 2.2 212 2.5 212 24.814 0.2 0.00
2022-12-08 01:30 25.2 74.7 18.3 1.0 184 2.0 184 24.814 0.2 0.00
2022-12-08 01:25 25.7 75.0 18.8 1.5 126 2.4 94 24.818 0.2 0.00
2022-12-08 01:20 25.8 75.5 19.1 3.7 121 4.6 72 24.821 0.2 0.00
2022-12-08 01:15 25.1 78.2 19.2 3.8 81 4.3 72 24.823 0.2 0.00
2022-12-08 01:10 25.3 76.2 18.8 2.5 58 3.1 56 24.822 0.2 0.00
2022-12-08 01:05 26.1 74.6 19.2 2.7 32 3.2 51 24.824 0.2 0.00
2022-12-08 01:00 27.3 71.6 19.4 2.5 42 3.7 329 24.820 0.2 0.00
2022-12-08 00:55 27.2 72.3 19.5 2.6 329 3.9 322 24.822 0.2 0.00
2022-12-08 00:50 27.2 72.2 19.4 3.5 301 5.0 307 24.821 0.2 0.00